sensor_id;sensor_type;location;lat;lon;timestamp;P1;durP1;ratioP1;P2;durP2;ratioP2
50631;SDS011;49583;45.590;-122.498;2023-07-09T00:01:18;4.70;;;2.10;;
50631;SDS011;49583;45.590;-122.498;2023-07-09T00:03:31;3.10;;;2.00;;
50631;SDS011;49583;45.590;-122.498;2023-07-09T00:05:44;2.10;;;1.90;;
50631;SDS011;49583;45.590;-122.498;2023-07-09T00:07:59;3.50;;;2.40;;
50631;SDS011;49583;45.590;-122.498;2023-07-09T00:10:16;2.40;;;1.90;;
50631;SDS011;49583;45.590;-122.498;2023-07-09T00:12:33;4.80;;;1.70;;
50631;SDS011;49583;45.590;-122.498;2023-07-09T00:14:46;2.60;;;2.00;;
50631;SDS011;49583;45.590;-122.498;2023-07-09T00:16:59;2.40;;;2.00;;
50631;SDS011;49583;45.590;-122.498;2023-07-09T00:19:23;2.50;;;2.30;;
50631;SDS011;49583;45.590;-122.498;2023-07-09T00:21:40;2.50;;;2.00;;
50631;SDS011;49583;45.590;-122.498;2023-07-09T00:23:53;1.90;;;1.70;;
50631;SDS011;49583;45.590;-122.498;2023-07-09T00:26:12;4.20;;;2.30;;
50631;SDS011;49583;45.590;-122.498;2023-07-09T00:28:31;4.20;;;2.00;;
50631;SDS011;49583;45.590;-122.498;2023-07-09T00:30:47;3.40;;;1.80;;
50631;SDS011;49583;45.590;-122.498;2023-07-09T00:33:00;2.90;;;1.90;;
50631;SDS011;49583;45.590;-122.498;2023-07-09T00:35:13;1.90;;;1.70;;
50631;SDS011;49583;45.590;-122.498;2023-07-09T00:37:29;2.20;;;2.00;;
50631;SDS011;49583;45.590;-122.498;2023-07-09T00:39:53;2.30;;;1.80;;
50631;SDS011;49583;45.590;-122.498;2023-07-09T00:42:07;5.90;;;2.00;;
50631;SDS011;49583;45.590;-122.498;2023-07-09T00:44:26;2.80;;;2.20;;
50631;SDS011;49583;45.590;-122.498;2023-07-09T00:49:32;2.00;;;1.80;;
50631;SDS011;49583;45.590;-122.498;2023-07-09T00:52:00;3.40;;;2.00;;
50631;SDS011;49583;45.590;-122.498;2023-07-09T00:54:30;2.00;;;1.70;;
50631;SDS011;49583;45.590;-122.498;2023-07-09T00:56:47;2.00;;;1.70;;
50631;SDS011;49583;45.590;-122.498;2023-07-09T00:59:06;1.50;;;1.40;;
50631;SDS011;49583;45.590;-122.498;2023-07-09T01:01:23;3.30;;;2.10;;
50631;SDS011;49583;45.590;-122.498;2023-07-09T01:03:36;2.30;;;1.50;;
50631;SDS011;49583;45.590;-122.498;2023-07-09T01:05:51;2.90;;;1.50;;
50631;SDS011;49583;45.590;-122.498;2023-07-09T01:08:06;2.00;;;1.70;;
50631;SDS011;49583;45.590;-122.498;2023-07-09T01:10:30;2.30;;;1.50;;
50631;SDS011;49583;45.590;-122.498;2023-07-09T01:12:43;2.30;;;1.70;;
50631;SDS011;49583;45.590;-122.498;2023-07-09T01:14:59;3.20;;;1.80;;
50631;SDS011;49583;45.590;-122.498;2023-07-09T01:17:12;2.10;;;1.80;;
50631;SDS011;49583;45.590;-122.498;2023-07-09T01:19:50;2.70;;;1.80;;
50631;SDS011;49583;45.590;-122.498;2023-07-09T01:22:04;3.00;;;1.30;;
50631;SDS011;49583;45.590;-122.498;2023-07-09T01:27:00;2.00;;;1.30;;
50631;SDS011;49583;45.590;-122.498;2023-07-09T01:29:13;3.20;;;1.20;;
50631;SDS011;49583;45.590;-122.498;2023-07-09T01:31:27;1.80;;;1.50;;
50631;SDS011;49583;45.590;-122.498;2023-07-09T01:33:42;1.60;;;1.40;;
50631;SDS011;49583;45.590;-122.498;2023-07-09T01:36:06;2.80;;;1.70;;
50631;SDS011;49583;45.590;-122.498;2023-07-09T01:38:21;4.00;;;1.80;;
50631;SDS011;49583;45.590;-122.498;2023-07-09T01:40:38;3.50;;;1.50;;
50631;SDS011;49583;45.590;-122.498;2023-07-09T01:42:54;1.90;;;1.80;;
50631;SDS011;49583;45.590;-122.498;2023-07-09T01:45:08;3.00;;;2.10;;
50631;SDS011;49583;45.590;-122.498;2023-07-09T01:47:23;1.70;;;1.40;;
50631;SDS011;49583;45.590;-122.498;2023-07-09T01:49:36;1.80;;;1.30;;
50631;SDS011;49583;45.590;-122.498;2023-07-09T01:51:49;6.00;;;1.70;;
50631;SDS011;49583;45.590;-122.498;2023-07-09T01:54:02;1.70;;;1.40;;
50631;SDS011;49583;45.590;-122.498;2023-07-09T01:56:16;1.80;;;1.70;;
50631;SDS011;49583;45.590;-122.498;2023-07-09T01:58:29;2.50;;;1.60;;
50631;SDS011;49583;45.590;-122.498;2023-07-09T02:00:42;5.30;;;1.70;;
50631;SDS011;49583;45.590;-122.498;2023-07-09T02:02:56;1.50;;;1.20;;
50631;SDS011;49583;45.590;-122.498;2023-07-09T02:05:10;1.60;;;1.30;;
50631;SDS011;49583;45.590;-122.498;2023-07-09T02:07:25;1.70;;;1.40;;
50631;SDS011;49583;45.590;-122.498;2023-07-09T02:09:37;3.10;;;1.40;;
50631;SDS011;49583;45.590;-122.498;2023-07-09T02:11:53;2.00;;;1.60;;
50631;SDS011;49583;45.590;-122.498;2023-07-09T02:14:06;6.20;;;1.40;;
50631;SDS011;49583;45.590;-122.498;2023-07-09T02:16:20;1.90;;;1.70;;
50631;SDS011;49583;45.590;-122.498;2023-07-09T02:18:33;3.80;;;1.50;;
50631;SDS011;49583;45.590;-122.498;2023-07-09T02:20:49;3.10;;;1.40;;
50631;SDS011;49583;45.590;-122.498;2023-07-09T02:23:02;3.50;;;1.40;;
50631;SDS011;49583;45.590;-122.498;2023-07-09T02:25:17;1.70;;;1.60;;
50631;SDS011;49583;45.590;-122.498;2023-07-09T02:27:30;2.80;;;1.20;;
50631;SDS011;49583;45.590;-122.498;2023-07-09T02:29:43;4.00;;;1.50;;
50631;SDS011;49583;45.590;-122.498;2023-07-09T02:31:56;2.70;;;1.30;;
50631;SDS011;49583;45.590;-122.498;2023-07-09T02:34:13;3.20;;;1.50;;
50631;SDS011;49583;45.590;-122.498;2023-07-09T02:36:39;3.00;;;1.40;;
50631;SDS011;49583;45.590;-122.498;2023-07-09T02:38:52;1.90;;;1.40;;
50631;SDS011;49583;45.590;-122.498;2023-07-09T02:41:05;1.80;;;1.20;;
50631;SDS011;49583;45.590;-122.498;2023-07-09T02:43:17;1.70;;;1.40;;
50631;SDS011;49583;45.590;-122.498;2023-07-09T02:45:31;1.80;;;1.30;;
50631;SDS011;49583;45.590;-122.498;2023-07-09T02:47:47;2.00;;;1.00;;
50631;SDS011;49583;45.590;-122.498;2023-07-09T02:50:04;1.70;;;1.50;;
50631;SDS011;49583;45.590;-122.498;2023-07-09T02:52:17;1.90;;;1.20;;
50631;SDS011;49583;45.590;-122.498;2023-07-09T02:54:33;2.50;;;1.40;;
50631;SDS011;49583;45.590;-122.498;2023-07-09T02:56:51;1.70;;;1.30;;
50631;SDS011;49583;45.590;-122.498;2023-07-09T02:59:14;4.30;;;1.70;;
50631;SDS011;49583;45.590;-122.498;2023-07-09T03:01:27;2.00;;;1.30;;
50631;SDS011;49583;45.590;-122.498;2023-07-09T03:03:45;2.00;;;1.20;;
50631;SDS011;49583;45.590;-122.498;2023-07-09T03:06:19;4.30;;;1.00;;
50631;SDS011;49583;45.590;-122.498;2023-07-09T03:08:32;1.80;;;1.40;;
50631;SDS011;49583;45.590;-122.498;2023-07-09T03:10:45;2.30;;;1.30;;
50631;SDS011;49583;45.590;-122.498;2023-07-09T03:13:18;1.90;;;1.40;;
50631;SDS011;49583;45.590;-122.498;2023-07-09T03:15:34;1.50;;;1.20;;
50631;SDS011;49583;45.590;-122.498;2023-07-09T03:17:47;4.30;;;1.40;;
50631;SDS011;49583;45.590;-122.498;2023-07-09T03:20:00;1.80;;;1.30;;
50631;SDS011;49583;45.590;-122.498;2023-07-09T03:22:15;2.80;;;1.40;;
50631;SDS011;49583;45.590;-122.498;2023-07-09T03:24:28;6.20;;;1.70;;
50631;SDS011;49583;45.590;-122.498;2023-07-09T03:26:41;2.60;;;1.30;;
50631;SDS011;49583;45.590;-122.498;2023-07-09T03:29:13;2.10;;;1.30;;
50631;SDS011;49583;45.590;-122.498;2023-07-09T03:31:46;1.80;;;1.40;;
50631;SDS011;49583;45.590;-122.498;2023-07-09T03:34:02;2.90;;;1.60;;
50631;SDS011;49583;45.590;-122.498;2023-07-09T03:36:35;2.80;;;1.50;;
50631;SDS011;49583;45.590;-122.498;2023-07-09T03:39:00;1.10;;;1.00;;
50631;SDS011;49583;45.590;-122.498;2023-07-09T03:41:13;1.80;;;1.30;;
50631;SDS011;49583;45.590;-122.498;2023-07-09T03:43:28;3.30;;;1.60;;
50631;SDS011;49583;45.590;-122.498;2023-07-09T03:45:51;1.40;;;1.30;;
50631;SDS011;49583;45.590;-122.498;2023-07-09T03:48:08;3.30;;;1.50;;
50631;SDS011;49583;45.590;-122.498;2023-07-09T03:50:31;1.90;;;1.70;;
50631;SDS011;49583;45.590;-122.498;2023-07-09T03:52:55;4.00;;;1.70;;
50631;SDS011;49583;45.590;-122.498;2023-07-09T03:55:08;2.40;;;1.60;;
50631;SDS011;49583;45.590;-122.498;2023-07-09T03:57:21;1.60;;;1.30;;
50631;SDS011;49583;45.590;-122.498;2023-07-09T03:59:44;2.10;;;1.70;;
50631;SDS011;49583;45.590;-122.498;2023-07-09T04:01:57;4.40;;;1.70;;
50631;SDS011;49583;45.590;-122.498;2023-07-09T04:04:16;6.60;;;2.20;;
50631;SDS011;49583;45.590;-122.498;2023-07-09T04:06:49;2.60;;;1.50;;
50631;SDS011;49583;45.590;-122.498;2023-07-09T04:09:14;5.10;;;1.80;;
50631;SDS011;49583;45.590;-122.498;2023-07-09T04:11:27;6.80;;;2.10;;
50631;SDS011;49583;45.590;-122.498;2023-07-09T04:13:40;4.50;;;2.10;;
50631;SDS011;49583;45.590;-122.498;2023-07-09T04:15:53;3.80;;;2.20;;
50631;SDS011;49583;45.590;-122.498;2023-07-09T04:18:09;3.40;;;1.90;;
50631;SDS011;49583;45.590;-122.498;2023-07-09T04:20:22;2.10;;;1.60;;
50631;SDS011;49583;45.590;-122.498;2023-07-09T04:22:38;5.00;;;1.50;;
50631;SDS011;49583;45.590;-122.498;2023-07-09T04:24:51;3.50;;;1.60;;
50631;SDS011;49583;45.590;-122.498;2023-07-09T04:27:07;1.80;;;1.40;;
50631;SDS011;49583;45.590;-122.498;2023-07-09T04:29:21;4.00;;;1.30;;
50631;SDS011;49583;45.590;-122.498;2023-07-09T04:31:34;2.30;;;1.50;;
50631;SDS011;49583;45.590;-122.498;2023-07-09T04:33:47;3.10;;;1.00;;
50631;SDS011;49583;45.590;-122.498;2023-07-09T04:36:03;1.50;;;1.20;;
50631;SDS011;49583;45.590;-122.498;2023-07-09T04:38:20;2.80;;;1.30;;
50631;SDS011;49583;45.590;-122.498;2023-07-09T04:40:33;3.30;;;1.90;;
50631;SDS011;49583;45.590;-122.498;2023-07-09T04:42:45;3.20;;;1.50;;
50631;SDS011;49583;45.590;-122.498;2023-07-09T04:44:58;2.50;;;1.70;;
50631;SDS011;49583;45.590;-122.498;2023-07-09T04:47:11;1.60;;;1.20;;
50631;SDS011;49583;45.590;-122.498;2023-07-09T04:49:25;2.10;;;1.40;;
50631;SDS011;49583;45.590;-122.498;2023-07-09T04:51:47;6.70;;;1.50;;
50631;SDS011;49583;45.590;-122.498;2023-07-09T04:54:00;5.20;;;1.30;;
50631;SDS011;49583;45.590;-122.498;2023-07-09T04:56:13;2.70;;;1.40;;
50631;SDS011;49583;45.590;-122.498;2023-07-09T04:58:46;1.20;;;1.10;;
50631;SDS011;49583;45.590;-122.498;2023-07-09T05:01:02;1.70;;;1.00;;
50631;SDS011;49583;45.590;-122.498;2023-07-09T05:03:15;1.10;;;1.00;;
50631;SDS011;49583;45.590;-122.498;2023-07-09T05:05:28;4.50;;;1.20;;
50631;SDS011;49583;45.590;-122.498;2023-07-09T05:07:44;2.20;;;1.10;;
50631;SDS011;49583;45.590;-122.498;2023-07-09T05:10:00;2.70;;;1.50;;
50631;SDS011;49583;45.590;-122.498;2023-07-09T05:12:14;3.60;;;1.40;;
50631;SDS011;49583;45.590;-122.498;2023-07-09T05:14:28;3.20;;;1.40;;
50631;SDS011;49583;45.590;-122.498;2023-07-09T05:16:41;5.00;;;1.60;;
50631;SDS011;49583;45.590;-122.498;2023-07-09T05:18:54;4.00;;;1.40;;
50631;SDS011;49583;45.590;-122.498;2023-07-09T05:21:06;2.70;;;1.20;;
50631;SDS011;49583;45.590;-122.498;2023-07-09T05:23:23;1.90;;;1.10;;
50631;SDS011;49583;45.590;-122.498;2023-07-09T05:25:37;1.80;;;1.10;;
50631;SDS011;49583;45.590;-122.498;2023-07-09T05:27:49;2.90;;;1.00;;
50631;SDS011;49583;45.590;-122.498;2023-07-09T05:30:03;1.60;;;1.00;;
50631;SDS011;49583;45.590;-122.498;2023-07-09T05:32:17;4.80;;;0.90;;
50631;SDS011;49583;45.590;-122.498;2023-07-09T05:34:30;2.30;;;0.90;;
50631;SDS011;49583;45.590;-122.498;2023-07-09T05:36:43;1.70;;;1.00;;
50631;SDS011;49583;45.590;-122.498;2023-07-09T05:38:59;1.10;;;0.70;;
50631;SDS011;49583;45.590;-122.498;2023-07-09T05:41:12;3.20;;;0.90;;
50631;SDS011;49583;45.590;-122.498;2023-07-09T05:43:25;2.70;;;1.20;;
50631;SDS011;49583;45.590;-122.498;2023-07-09T05:45:40;1.80;;;0.90;;
50631;SDS011;49583;45.590;-122.498;2023-07-09T05:47:53;2.60;;;1.00;;
50631;SDS011;49583;45.590;-122.498;2023-07-09T05:50:07;10.70;;;1.30;;
50631;SDS011;49583;45.590;-122.498;2023-07-09T05:52:40;3.50;;;1.40;;
50631;SDS011;49583;45.590;-122.498;2023-07-09T05:55:04;1.80;;;0.90;;
50631;SDS011;49583;45.590;-122.498;2023-07-09T05:57:18;2.20;;;0.80;;
50631;SDS011;49583;45.590;-122.498;2023-07-09T05:59:31;1.60;;;0.90;;
50631;SDS011;49583;45.590;-122.498;2023-07-09T06:01:47;2.80;;;0.80;;
50631;SDS011;49583;45.590;-122.498;2023-07-09T06:04:00;1.70;;;0.90;;
50631;SDS011;49583;45.590;-122.498;2023-07-09T06:06:14;5.60;;;0.80;;
50631;SDS011;49583;45.590;-122.498;2023-07-09T06:08:27;3.00;;;0.90;;
50631;SDS011;49583;45.590;-122.498;2023-07-09T06:10:49;1.20;;;0.70;;
50631;SDS011;49583;45.590;-122.498;2023-07-09T06:13:04;2.20;;;0.90;;
50631;SDS011;49583;45.590;-122.498;2023-07-09T06:15:16;4.70;;;1.00;;
50631;SDS011;49583;45.590;-122.498;2023-07-09T06:17:29;3.20;;;1.10;;
50631;SDS011;49583;45.590;-122.498;2023-07-09T06:19:41;2.40;;;1.00;;
50631;SDS011;49583;45.590;-122.498;2023-07-09T06:21:57;1.80;;;1.20;;
50631;SDS011;49583;45.590;-122.498;2023-07-09T06:24:11;2.00;;;0.90;;
50631;SDS011;49583;45.590;-122.498;2023-07-09T06:26:23;3.10;;;1.00;;
50631;SDS011;49583;45.590;-122.498;2023-07-09T06:28:36;3.30;;;1.10;;
50631;SDS011;49583;45.590;-122.498;2023-07-09T06:30:51;2.10;;;1.20;;
50631;SDS011;49583;45.590;-122.498;2023-07-09T06:33:04;2.20;;;1.00;;
50631;SDS011;49583;45.590;-122.498;2023-07-09T06:35:17;3.30;;;0.90;;
50631;SDS011;49583;45.590;-122.498;2023-07-09T06:37:30;2.80;;;0.90;;
50631;SDS011;49583;45.590;-122.498;2023-07-09T06:39:43;3.50;;;1.00;;
50631;SDS011;49583;45.590;-122.498;2023-07-09T06:41:56;3.80;;;1.00;;
50631;SDS011;49583;45.590;-122.498;2023-07-09T06:44:23;3.30;;;0.80;;
50631;SDS011;49583;45.590;-122.498;2023-07-09T06:46:37;3.20;;;0.80;;
50631;SDS011;49583;45.590;-122.498;2023-07-09T06:48:49;2.50;;;1.00;;
50631;SDS011;49583;45.590;-122.498;2023-07-09T06:51:05;1.20;;;0.80;;
50631;SDS011;49583;45.590;-122.498;2023-07-09T06:53:18;3.80;;;1.10;;
50631;SDS011;49583;45.590;-122.498;2023-07-09T06:55:31;2.00;;;1.00;;
50631;SDS011;49583;45.590;-122.498;2023-07-09T06:57:44;3.00;;;1.20;;
50631;SDS011;49583;45.590;-122.498;2023-07-09T06:59:56;3.60;;;1.10;;
50631;SDS011;49583;45.590;-122.498;2023-07-09T07:02:20;4.30;;;0.80;;
50631;SDS011;49583;45.590;-122.498;2023-07-09T07:04:33;3.70;;;1.00;;
50631;SDS011;49583;45.590;-122.498;2023-07-09T07:06:47;3.20;;;0.80;;
50631;SDS011;49583;45.590;-122.498;2023-07-09T07:09:02;3.30;;;1.00;;
50631;SDS011;49583;45.590;-122.498;2023-07-09T07:11:16;1.60;;;1.00;;
50631;SDS011;49583;45.590;-122.498;2023-07-09T07:13:39;1.30;;;1.00;;
50631;SDS011;49583;45.590;-122.498;2023-07-09T07:15:54;2.60;;;0.80;;
50631;SDS011;49583;45.590;-122.498;2023-07-09T07:18:08;2.20;;;0.90;;
50631;SDS011;49583;45.590;-122.498;2023-07-09T07:20:21;0.90;;;0.60;;
50631;SDS011;49583;45.590;-122.498;2023-07-09T07:22:34;3.10;;;0.90;;
50631;SDS011;49583;45.590;-122.498;2023-07-09T07:24:48;1.50;;;0.90;;
50631;SDS011;49583;45.590;-122.498;2023-07-09T07:27:02;1.10;;;0.60;;
50631;SDS011;49583;45.590;-122.498;2023-07-09T07:29:15;4.20;;;0.80;;
50631;SDS011;49583;45.590;-122.498;2023-07-09T07:31:27;1.40;;;0.80;;
50631;SDS011;49583;45.590;-122.498;2023-07-09T07:33:41;4.60;;;0.80;;
50631;SDS011;49583;45.590;-122.498;2023-07-09T07:35:54;2.50;;;1.00;;
50631;SDS011;49583;45.590;-122.498;2023-07-09T07:38:26;2.30;;;0.70;;
50631;SDS011;49583;45.590;-122.498;2023-07-09T07:40:45;1.80;;;0.70;;
50631;SDS011;49583;45.590;-122.498;2023-07-09T07:43:03;2.30;;;1.00;;
50631;SDS011;49583;45.590;-122.498;2023-07-09T07:45:16;0.90;;;0.80;;
50631;SDS011;49583;45.590;-122.498;2023-07-09T07:47:29;3.40;;;1.40;;
50631;SDS011;49583;45.590;-122.498;2023-07-09T07:49:44;3.20;;;1.00;;
50631;SDS011;49583;45.590;-122.498;2023-07-09T07:51:57;2.50;;;0.90;;
50631;SDS011;49583;45.590;-122.498;2023-07-09T07:54:11;4.80;;;0.80;;
50631;SDS011;49583;45.590;-122.498;2023-07-09T07:56:29;1.80;;;0.80;;
50631;SDS011;49583;45.590;-122.498;2023-07-09T07:58:44;2.40;;;1.30;;
50631;SDS011;49583;45.590;-122.498;2023-07-09T08:00:57;2.40;;;1.00;;
50631;SDS011;49583;45.590;-122.498;2023-07-09T08:03:11;2.10;;;0.90;;
50631;SDS011;49583;45.590;-122.498;2023-07-09T08:05:23;1.90;;;1.00;;
50631;SDS011;49583;45.590;-122.498;2023-07-09T08:07:40;1.70;;;1.10;;
50631;SDS011;49583;45.590;-122.498;2023-07-09T08:09:52;3.20;;;1.60;;
50631;SDS011;49583;45.590;-122.498;2023-07-09T08:12:06;2.60;;;1.00;;
50631;SDS011;49583;45.590;-122.498;2023-07-09T08:14:21;3.20;;;1.00;;
50631;SDS011;49583;45.590;-122.498;2023-07-09T08:16:34;2.50;;;1.40;;
50631;SDS011;49583;45.590;-122.498;2023-07-09T08:18:47;1.90;;;1.40;;
50631;SDS011;49583;45.590;-122.498;2023-07-09T08:21:00;3.40;;;1.30;;
50631;SDS011;49583;45.590;-122.498;2023-07-09T08:23:13;2.60;;;1.30;;
50631;SDS011;49583;45.590;-122.498;2023-07-09T08:25:26;4.10;;;1.60;;
50631;SDS011;49583;45.590;-122.498;2023-07-09T08:27:39;3.10;;;1.40;;
50631;SDS011;49583;45.590;-122.498;2023-07-09T08:29:52;1.40;;;1.10;;
50631;SDS011;49583;45.590;-122.498;2023-07-09T08:32:07;1.90;;;1.60;;
50631;SDS011;49583;45.590;-122.498;2023-07-09T08:34:20;3.00;;;1.30;;
50631;SDS011;49583;45.590;-122.498;2023-07-09T08:36:33;2.90;;;1.40;;
50631;SDS011;49583;45.590;-122.498;2023-07-09T08:38:45;4.10;;;1.70;;
50631;SDS011;49583;45.590;-122.498;2023-07-09T08:40:58;7.20;;;1.80;;
50631;SDS011;49583;45.590;-122.498;2023-07-09T08:43:17;2.80;;;1.30;;
50631;SDS011;49583;45.590;-122.498;2023-07-09T08:45:43;1.70;;;1.30;;
50631;SDS011;49583;45.590;-122.498;2023-07-09T08:48:01;3.00;;;1.50;;
50631;SDS011;49583;45.590;-122.498;2023-07-09T08:50:22;2.90;;;1.50;;
50631;SDS011;49583;45.590;-122.498;2023-07-09T08:52:42;2.40;;;1.20;;
50631;SDS011;49583;45.590;-122.498;2023-07-09T08:54:57;3.30;;;1.80;;
50631;SDS011;49583;45.590;-122.498;2023-07-09T08:57:17;1.60;;;1.10;;
50631;SDS011;49583;45.590;-122.498;2023-07-09T08:59:34;2.70;;;1.20;;
50631;SDS011;49583;45.590;-122.498;2023-07-09T09:01:49;4.10;;;1.40;;
50631;SDS011;49583;45.590;-122.498;2023-07-09T09:04:07;3.10;;;1.30;;
50631;SDS011;49583;45.590;-122.498;2023-07-09T09:06:30;1.60;;;1.20;;
50631;SDS011;49583;45.590;-122.498;2023-07-09T09:08:44;2.30;;;1.40;;
50631;SDS011;49583;45.590;-122.498;2023-07-09T09:11:10;2.90;;;1.10;;
50631;SDS011;49583;45.590;-122.498;2023-07-09T09:13:30;3.20;;;1.40;;
50631;SDS011;49583;45.590;-122.498;2023-07-09T09:15:46;1.50;;;1.10;;
50631;SDS011;49583;45.590;-122.498;2023-07-09T09:18:01;3.10;;;1.30;;
50631;SDS011;49583;45.590;-122.498;2023-07-09T09:20:28;1.30;;;0.90;;
50631;SDS011;49583;45.590;-122.498;2023-07-09T09:22:43;3.40;;;1.20;;
50631;SDS011;49583;45.590;-122.498;2023-07-09T09:25:03;1.40;;;1.10;;
50631;SDS011;49583;45.590;-122.498;2023-07-09T09:27:25;2.60;;;1.20;;
50631;SDS011;49583;45.590;-122.498;2023-07-09T09:29:38;2.60;;;1.20;;
50631;SDS011;49583;45.590;-122.498;2023-07-09T09:31:52;1.30;;;1.10;;
50631;SDS011;49583;45.590;-122.498;2023-07-09T09:34:16;1.70;;;1.30;;
50631;SDS011;49583;45.590;-122.498;2023-07-09T09:36:30;2.30;;;1.20;;
50631;SDS011;49583;45.590;-122.498;2023-07-09T09:38:46;3.30;;;1.10;;
50631;SDS011;49583;45.590;-122.498;2023-07-09T09:41:01;2.40;;;1.30;;
50631;SDS011;49583;45.590;-122.498;2023-07-09T09:43:14;2.00;;;1.30;;
50631;SDS011;49583;45.590;-122.498;2023-07-09T09:45:33;3.90;;;1.10;;
50631;SDS011;49583;45.590;-122.498;2023-07-09T09:47:48;3.30;;;1.60;;
50631;SDS011;49583;45.590;-122.498;2023-07-09T09:50:01;2.60;;;1.30;;
50631;SDS011;49583;45.590;-122.498;2023-07-09T09:52:16;5.50;;;1.30;;
50631;SDS011;49583;45.590;-122.498;2023-07-09T09:54:30;1.10;;;0.90;;
50631;SDS011;49583;45.590;-122.498;2023-07-09T09:56:43;2.00;;;1.50;;
50631;SDS011;49583;45.590;-122.498;2023-07-09T09:58:57;3.20;;;1.30;;
50631;SDS011;49583;45.590;-122.498;2023-07-09T10:01:13;2.20;;;1.20;;
50631;SDS011;49583;45.590;-122.498;2023-07-09T10:03:34;1.80;;;1.20;;
50631;SDS011;49583;45.590;-122.498;2023-07-09T10:05:50;2.40;;;1.00;;
50631;SDS011;49583;45.590;-122.498;2023-07-09T10:08:08;2.30;;;1.10;;
50631;SDS011;49583;45.590;-122.498;2023-07-09T10:10:25;3.00;;;1.30;;
50631;SDS011;49583;45.590;-122.498;2023-07-09T10:12:44;2.80;;;0.80;;
50631;SDS011;49583;45.590;-122.498;2023-07-09T10:15:05;1.50;;;1.10;;
50631;SDS011;49583;45.590;-122.498;2023-07-09T10:17:33;6.40;;;1.30;;
50631;SDS011;49583;45.590;-122.498;2023-07-09T10:19:52;1.80;;;1.30;;
50631;SDS011;49583;45.590;-122.498;2023-07-09T10:22:13;2.00;;;1.50;;
50631;SDS011;49583;45.590;-122.498;2023-07-09T10:24:41;1.10;;;1.00;;
50631;SDS011;49583;45.590;-122.498;2023-07-09T10:27:03;3.20;;;1.50;;
50631;SDS011;49583;45.590;-122.498;2023-07-09T10:29:34;4.50;;;1.30;;
50631;SDS011;49583;45.590;-122.498;2023-07-09T10:31:58;3.10;;;1.20;;
50631;SDS011;49583;45.590;-122.498;2023-07-09T10:34:21;2.50;;;1.50;;
50631;SDS011;49583;45.590;-122.498;2023-07-09T10:36:47;3.60;;;1.40;;
50631;SDS011;49583;45.590;-122.498;2023-07-09T10:39:11;2.90;;;1.30;;
50631;SDS011;49583;45.590;-122.498;2023-07-09T10:41:29;1.60;;;1.10;;
50631;SDS011;49583;45.590;-122.498;2023-07-09T10:43:45;5.10;;;2.10;;
50631;SDS011;49583;45.590;-122.498;2023-07-09T10:46:02;3.40;;;1.20;;
50631;SDS011;49583;45.590;-122.498;2023-07-09T10:48:25;3.00;;;1.30;;
50631;SDS011;49583;45.590;-122.498;2023-07-09T10:50:43;2.50;;;1.40;;
50631;SDS011;49583;45.590;-122.498;2023-07-09T10:53:00;2.30;;;1.50;;
50631;SDS011;49583;45.590;-122.498;2023-07-09T10:55:20;1.80;;;1.30;;
50631;SDS011;49583;45.590;-122.498;2023-07-09T10:57:41;3.80;;;1.90;;
50631;SDS011;49583;45.590;-122.498;2023-07-09T10:59:58;2.40;;;1.50;;
50631;SDS011;49583;45.590;-122.498;2023-07-09T11:02:15;2.00;;;1.20;;
50631;SDS011;49583;45.590;-122.498;2023-07-09T11:04:33;2.80;;;1.10;;
50631;SDS011;49583;45.590;-122.498;2023-07-09T11:06:51;2.90;;;1.10;;
50631;SDS011;49583;45.590;-122.498;2023-07-09T11:09:11;1.80;;;1.20;;
50631;SDS011;49583;45.590;-122.498;2023-07-09T11:11:33;3.50;;;1.20;;
50631;SDS011;49583;45.590;-122.498;2023-07-09T11:13:50;2.70;;;1.30;;
50631;SDS011;49583;45.590;-122.498;2023-07-09T11:16:08;5.30;;;1.20;;
50631;SDS011;49583;45.590;-122.498;2023-07-09T11:18:32;3.20;;;1.30;;
50631;SDS011;49583;45.590;-122.498;2023-07-09T11:20:45;1.70;;;1.20;;
50631;SDS011;49583;45.590;-122.498;2023-07-09T11:23:05;3.00;;;1.10;;
50631;SDS011;49583;45.590;-122.498;2023-07-09T11:25:31;3.40;;;1.00;;
50631;SDS011;49583;45.590;-122.498;2023-07-09T11:27:53;3.60;;;1.10;;
50631;SDS011;49583;45.590;-122.498;2023-07-09T11:30:20;3.70;;;1.30;;
50631;SDS011;49583;45.590;-122.498;2023-07-09T11:32:44;3.70;;;1.10;;
50631;SDS011;49583;45.590;-122.498;2023-07-09T11:35:08;4.60;;;1.20;;
50631;SDS011;49583;45.590;-122.498;2023-07-09T11:37:30;1.90;;;1.20;;
50631;SDS011;49583;45.590;-122.498;2023-07-09T11:39:53;1.80;;;1.10;;
50631;SDS011;49583;45.590;-122.498;2023-07-09T11:44:44;2.00;;;1.20;;
50631;SDS011;49583;45.590;-122.498;2023-07-09T11:47:17;1.90;;;1.00;;
50631;SDS011;49583;45.590;-122.498;2023-07-09T11:49:34;1.10;;;1.00;;
50631;SDS011;49583;45.590;-122.498;2023-07-09T11:52:00;2.80;;;1.20;;
50631;SDS011;49583;45.590;-122.498;2023-07-09T11:54:14;2.00;;;1.00;;
50631;SDS011;49583;45.590;-122.498;2023-07-09T11:56:28;2.10;;;0.90;;
50631;SDS011;49583;45.590;-122.498;2023-07-09T11:58:49;2.30;;;0.90;;
50631;SDS011;49583;45.590;-122.498;2023-07-09T12:01:09;4.00;;;1.20;;
50631;SDS011;49583;45.590;-122.498;2023-07-09T12:03:29;3.00;;;1.00;;
50631;SDS011;49583;45.590;-122.498;2023-07-09T12:05:45;1.80;;;1.60;;
50631;SDS011;49583;45.590;-122.498;2023-07-09T12:08:06;3.00;;;1.10;;
50631;SDS011;49583;45.590;-122.498;2023-07-09T12:10:24;4.40;;;1.10;;
50631;SDS011;49583;45.590;-122.498;2023-07-09T12:12:41;1.20;;;1.00;;
50631;SDS011;49583;45.590;-122.498;2023-07-09T12:14:53;1.70;;;1.20;;
50631;SDS011;49583;45.590;-122.498;2023-07-09T12:17:07;2.30;;;1.20;;
50631;SDS011;49583;45.590;-122.498;2023-07-09T12:19:21;1.50;;;1.20;;
50631;SDS011;49583;45.590;-122.498;2023-07-09T12:21:39;1.70;;;1.20;;
50631;SDS011;49583;45.590;-122.498;2023-07-09T12:23:53;1.30;;;1.00;;
50631;SDS011;49583;45.590;-122.498;2023-07-09T12:26:10;4.60;;;1.30;;
50631;SDS011;49583;45.590;-122.498;2023-07-09T12:28:26;3.20;;;1.10;;
50631;SDS011;49583;45.590;-122.498;2023-07-09T12:30:41;3.20;;;1.20;;
50631;SDS011;49583;45.590;-122.498;2023-07-09T12:33:00;2.20;;;1.00;;
50631;SDS011;49583;45.590;-122.498;2023-07-09T12:35:16;2.80;;;1.30;;
50631;SDS011;49583;45.590;-122.498;2023-07-09T12:37:29;1.70;;;1.20;;
50631;SDS011;49583;45.590;-122.498;2023-07-09T12:39:43;1.50;;;1.20;;
50631;SDS011;49583;45.590;-122.498;2023-07-09T12:41:56;6.00;;;1.80;;
50631;SDS011;49583;45.590;-122.498;2023-07-09T12:44:18;2.60;;;1.30;;
50631;SDS011;49583;45.590;-122.498;2023-07-09T12:46:32;1.60;;;1.10;;
50631;SDS011;49583;45.590;-122.498;2023-07-09T12:48:45;2.20;;;1.10;;
50631;SDS011;49583;45.590;-122.498;2023-07-09T12:50:58;4.70;;;1.10;;
50631;SDS011;49583;45.590;-122.498;2023-07-09T12:53:17;3.00;;;1.20;;
50631;SDS011;49583;45.590;-122.498;2023-07-09T12:55:30;1.10;;;1.00;;
50631;SDS011;49583;45.590;-122.498;2023-07-09T12:57:51;4.40;;;1.30;;
50631;SDS011;49583;45.590;-122.498;2023-07-09T13:00:09;2.70;;;1.10;;
50631;SDS011;49583;45.590;-122.498;2023-07-09T13:02:27;2.30;;;1.30;;
50631;SDS011;49583;45.590;-122.498;2023-07-09T13:04:47;2.90;;;1.30;;
50631;SDS011;49583;45.590;-122.498;2023-07-09T13:07:00;1.20;;;0.90;;
50631;SDS011;49583;45.590;-122.498;2023-07-09T13:09:15;1.70;;;0.90;;
50631;SDS011;49583;45.590;-122.498;2023-07-09T13:11:34;3.50;;;1.00;;
50631;SDS011;49583;45.590;-122.498;2023-07-09T13:13:56;2.40;;;1.30;;
50631;SDS011;49583;45.590;-122.498;2023-07-09T13:16:11;2.50;;;1.30;;